Terminal Aerodrome Forecast
Issued by NWS

Home | Current Version | Previous Version | Graphics & Text | Print | Product List | Glossary On
Versions: 1 2 3 4 5 6 7 8 9 10 11 12 13 14 15 16 17 18
000
FTUS43 KICT 150508 AAB
TAFHUT
TAF AMD
KHUT 150508Z 1505/1524 18010KT 4SM BR OVC006
     FM150800 31007KT 2SM BR OVC008
     FM150900 34008KT 5SM BR OVC010
     FM151100 36013KT P6SM FEW070
     FM152300 01005KT P6SM FEW250=

USA.gov is the U.S. government's official web portal to all federal, state and local government web resources and services.